Aviation Digital Data Service (ADDS)

Output produced by METARs form (1851 UTC 19 August 2019)
found at http://www.aviationweather.gov/metar/data/
 
Forecast for: GVAC (SAL ISL/AMILCAR , CV)
Text: TAF GVAC 191700Z 1918/2024 03006KT 9999 BKN015
Forecast period: 1800 UTC 19 August 2019 to 0900 UTC 20 August 2019
Forecast type: FROM: standard forecast or significant change
Winds: from the NNE (30 degrees) at 7 MPH (6 knots; 3.1 m/s)
Visibility: 6 or more miles 10+ km)
Ceiling: 1500 feet AGL
Clouds: broken clouds at 1500 feet AGL
Weather: no significant weather forecast for this period
Text: TEMPO 2004/2008 VRB02KT
Forecast period: 0400 to 0800 UTC 20 August 2019
Forecast type: TEMPORARY: The following changes expected for less than half the time period
Winds: variable direction winds at 2 MPH (2 knots; 1.0 m/s)
Visibility: missing
Ceiling: unknown
Clouds: missing
Weather: no significant weather forecast for this period
Text: BECMG 2009/2011 33010KT
Forecast period: 0900 UTC 20 August 2019 to 0000 UTC 21 August 2019
Forecast type: BECOMING: Conditions expected to become as follows by 1100 UTC 20 August 2019
Winds: from the NNW (330 degrees) at 12 MPH (10 knots; 5.1 m/s)
Visibility: 6 or more miles 10+ km)
Ceiling: 1500 feet AGL
Clouds: broken clouds at 1500 feet AGL
Weather: no significant weather forecast for this period